Time;durP1;ratioP1;P1;durP2;ratioP2;P2;SDS_P1;SDS_P2;PMS_P1;PMS_P2;Temp;Humidity;BMP_temperature;BMP_pressure;BME280_temperature;BME280_humidity;BME280_pressure;Samples;Min_cycle;Max_cycle;Signal;HPM_P1;HPM_P2
2021/03/24 00:00:30;;;;;;;50.38;28.32;;;;;;;3.72;83.05;98575.36;1780724;79;21082;-72
2021/03/24 00:02:58;;;;;;;56.08;27.87;;;;;;;3.64;83.86;98571.62;1780804;80;21480;-72
2021/03/24 00:05:29;;;;;;;54.08;30.70;;;;;;;3.64;83.70;98578.33;1780731;79;21102;-72
2021/03/24 00:07:55;;;;;;;49.58;29.77;;;;;;;3.61;83.73;98575.58;1780001;80;21150;-72
2021/03/24 00:10:24;;;;;;;49.53;28.50;;;;;;;3.61;83.11;98572.90;1780773;79;21400;-72
2021/03/24 00:12:51;;;;;;;58.80;31.10;;;;;;;3.54;84.04;98580.70;1780986;80;21079;-72
2021/03/24 00:15:17;;;;;;;52.55;29.82;;;;;;;3.50;84.47;98577.63;1780663;79;21202;-72
2021/03/24 00:17:44;;;;;;;55.12;29.42;;;;;;;3.48;84.73;98578.37;1780723;80;21550;-72
2021/03/24 00:20:12;;;;;;;45.95;25.90;;;;;;;3.55;83.63;98572.95;1780876;79;21110;-72
2021/03/24 00:22:38;;;;;;;46.40;24.20;;;;;;;3.53;84.23;98565.66;1762496;81;21520;-72
2021/03/24 00:25:06;;;;;;;52.93;28.00;;;;;;;3.48;84.55;98567.65;1749999;81;21157;-72
2021/03/24 00:27:32;;;;;;;53.60;27.87;;;;;;;3.50;84.35;98565.56;1780859;80;21184;-72
2021/03/24 00:29:58;;;;;;;49.30;28.10;;;;;;;3.49;84.84;98571.15;1780754;79;21102;-72
2021/03/24 00:32:24;;;;;;;52.95;30.02;;;;;;;3.46;84.88;98567.06;1732033;82;21215;-73
2021/03/24 00:34:50;;;;;;;53.17;29.55;;;;;;;3.46;84.62;98575.09;1756515;80;21094;-72
2021/03/24 00:37:17;;;;;;;52.73;27.80;;;;;;;3.41;85.02;98572.25;1732008;82;21159;-72
2021/03/24 00:39:43;;;;;;;55.92;31.52;;;;;;;3.43;84.61;98579.56;1780819;79;21243;-72
2021/03/24 00:42:09;;;;;;;55.48;30.35;;;;;;;3.35;85.13;98577.98;1732024;82;21563;-72
2021/03/24 00:44:35;;;;;;;49.58;26.25;;;;;;;3.36;85.31;98575.59;1780771;79;21059;-72
2021/03/24 00:47:02;;;;;;;54.30;28.67;;;;;;;3.32;85.22;98578.92;1762262;81;21128;-72
2021/03/24 00:49:28;;;;;;;49.00;27.10;;;;;;;3.28;85.45;98575.06;1749940;81;21665;-72
2021/03/24 00:51:54;;;;;;;43.23;24.20;;;;;;;3.31;84.88;98575.42;1780919;80;21262;-72
2021/03/24 00:54:20;;;;;;;46.55;25.20;;;;;;;3.27;85.42;98574.24;1780824;79;21460;-72
2021/03/24 00:56:47;;;;;;;54.58;28.70;;;;;;;3.30;85.11;98577.81;1762273;81;21128;-73
2021/03/24 00:59:14;;;;;;;54.75;28.77;;;;;;;3.28;85.16;98581.23;1748745;81;21431;-72
2021/03/24 01:01:41;;;;;;;53.13;29.85;;;;;;;3.23;85.51;98582.92;1747376;82;21086;-72
2021/03/24 01:04:08;;;;;;;44.30;24.98;;;;;;;3.29;85.21;98576.70;1747245;82;21209;-72
2021/03/24 01:06:39;;;;;;;51.80;30.55;;;;;;;3.30;85.07;98575.66;1747206;82;21129;-73
2021/03/24 01:09:08;;;;;;;45.52;27.27;;;;;;;3.27;85.47;98571.56;1747318;81;21546;-71
2021/03/24 01:11:34;;;;;;;48.70;26.23;;;;;;;3.27;85.26;98582.80;1747299;82;21535;-72
2021/03/24 01:14:00;;;;;;;49.48;27.32;;;;;;;3.20;85.75;98582.03;1747325;81;21917;-72
2021/03/24 01:16:27;;;;;;;54.33;29.10;;;;;;;3.14;85.83;98572.17;1747248;82;21272;-72
2021/03/24 01:18:53;;;;;;;52.35;27.50;;;;;;;3.11;86.10;98575.59;1747139;81;21059;-72
2021/03/24 01:21:19;;;;;;;51.70;30.43;;;;;;;3.17;85.48;98573.92;1747218;82;21050;-72
2021/03/24 01:23:45;;;;;;;49.45;26.27;;;;;;;3.13;85.67;98575.37;1747237;81;21067;-72
2021/03/24 01:26:11;;;;;;;58.52;29.80;;;;;;;3.15;85.54;98577.83;1747252;81;21106;-72
2021/03/24 01:28:37;;;;;;;49.93;28.32;;;;;;;3.19;85.04;98576.37;1747220;81;21264;-72
2021/03/24 01:31:04;;;;;;;51.63;28.25;;;;;;;3.19;85.24;98576.37;1747177;81;21456;-72
2021/03/24 01:33:30;;;;;;;53.80;27.82;;;;;;;3.23;85.00;98579.72;1747301;81;21142;-72
2021/03/24 01:35:56;;;;;;;52.17;29.40;;;;;;;3.24;84.92;98576.52;1747280;81;21082;-72
2021/03/24 01:38:22;;;;;;;53.08;26.57;;;;;;;3.20;85.29;98579.34;1747228;82;21129;-72
2021/03/24 01:40:53;;;;;;;45.50;26.55;;;;;;;3.27;85.01;98575.58;1747209;82;21523;-72
2021/03/24 01:43:31;;;;;;;54.38;30.75;;;;;;;3.20;85.30;98578.02;1747223;82;21102;-72
2021/03/24 01:46:23;;;;;;;47.20;28.25;;;;;;;3.17;85.47;98583.81;1747387;81;26898;-71
2021/03/24 01:48:56;;;;;;;45.78;26.17;;;;;;;3.19;85.12;98584.41;1746656;82;21201;-72
2021/03/24 01:51:36;;;;;;;52.40;30.27;;;;;;;3.16;85.53;98582.14;1747363;82;21012;-72
2021/03/24 01:54:05;;;;;;;51.35;27.05;;;;;;;3.11;85.77;98582.81;1747298;82;22029;-72
2021/03/24 01:56:31;;;;;;;51.02;28.60;;;;;;;3.14;85.05;98590.41;1747357;82;21491;-73
2021/03/24 01:58:57;;;;;;;59.38;26.17;;;;;;;3.14;85.42;98589.59;1745146;81;21137;-72
2021/03/24 02:01:24;;;;;;;147.37;66.33;;;;;;;3.13;85.71;98588.77;1735915;82;21074;-72
2021/03/24 02:03:50;;;;;;;100.92;52.38;;;;;;;3.12;85.73;98589.80;1735866;82;21138;-72
2021/03/24 02:06:39;;;;;;;74.42;42.43;;;;;;;3.07;86.45;98595.80;1735856;82;21187;-72
2021/03/24 02:09:17;;;;;;;61.15;32.93;;;;;;;3.04;86.50;98594.91;1736027;82;21062;-72
2021/03/24 02:11:57;;;;;;;54.27;30.25;;;;;;;3.05;86.20;98595.20;1734898;82;21070;-72
2021/03/24 02:14:37;;;;;;;46.05;26.97;;;;;;;3.06;86.34;98592.01;1735956;82;21055;-72
2021/03/24 02:17:04;;;;;;;50.15;28.57;;;;;;;3.09;85.88;98594.27;1735803;82;21090;-73
2021/03/24 02:19:52;;;;;;;52.20;27.93;;;;;;;3.05;86.50;98591.19;1716881;82;21229;-73
2021/03/24 02:22:23;;;;;;;47.65;24.82;;;;;;;3.03;86.60;98598.63;1735965;82;21535;-72
2021/03/24 02:25:01;;;;;;;46.02;27.45;;;;;;;3.02;86.89;98598.33;1735825;82;21114;-72
2021/03/24 02:27:32;;;;;;;44.93;26.40;;;;;;;3.06;86.23;98602.20;1735729;82;21133;-72
2021/03/24 02:30:12;;;;;;;48.45;28.55;;;;;;;3.03;86.32;98601.83;1735931;82;21490;-72
2021/03/24 02:32:41;;;;;;;49.35;29.52;;;;;;;3.00;86.55;98604.42;1735895;82;22096;-72
2021/03/24 02:35:11;;;;;;;;;;;;;;;2.97;86.73;98604.02;1738332;82;21154;-72
2021/03/24 02:37:37;;;;;;;53.92;25.45;;;;;;;2.93;86.85;98596.95;1734706;82;20493;-72
2021/03/24 02:40:08;;;;;;;45.80;25.00;;;;;;;2.87;87.55;98608.52;1785196;79;21020;-72
2021/03/24 02:42:35;;;;;;;44.88;25.60;;;;;;;2.87;87.47;98606.36;1757169;80;21126;-72
2021/03/24 02:45:04;;;;;;;47.98;25.37;;;;;;;2.92;86.95;98607.88;1785105;79;21188;-72
2021/03/24 02:47:30;;;;;;;47.17;28.02;;;;;;;2.87;87.65;98609.86;1785339;80;26713;-72
2021/03/24 02:49:56;;;;;;;40.78;23.42;;;;;;;2.93;86.88;98605.50;1785215;79;21472;-72
2021/03/24 02:52:22;;;;;;;41.18;23.73;;;;;;;2.95;87.09;98610.12;1785181;80;21134;-72
2021/03/24 02:54:49;;;;;;;51.95;26.75;;;;;;;2.98;86.67;98613.17;1785235;79;21070;-72
2021/03/24 02:57:15;;;;;;;45.67;24.87;;;;;;;2.96;87.27;98613.91;1756626;80;21185;-72
2021/03/24 02:59:41;;;;;;;40.92;23.35;;;;;;;2.99;87.02;98614.84;1782433;79;21059;-72
2021/03/24 03:02:14;;;;;;;45.85;24.25;;;;;;;3.03;86.54;98608.00;1778085;80;21139;-72
2021/03/24 03:05:04;;;;;;;41.63;24.25;;;;;;;3.00;87.00;98608.96;1753785;80;21067;-72
2021/03/24 03:07:46;;;;;;;39.73;23.67;;;;;;;2.93;87.22;98600.97;1777048;80;21083;-71
2021/03/24 03:10:37;;;;;;;48.60;28.30;;;;;;;2.86;87.64;98604.72;1777276;79;21205;-71
2021/03/24 03:13:30;;;;;;;48.98;27.58;;;;;;;2.81;88.10;98609.37;1777930;80;21067;-71
2021/03/24 03:16:07;;;;;;;56.23;26.52;;;;;;;2.79;88.15;98604.75;1777926;79;21119;-71
2021/03/24 03:18:55;;;;;;;50.20;26.65;;;;;;;2.80;87.59;98611.75;1777980;80;21074;-73
2021/03/24 03:21:26;;;;;;;52.80;28.02;;;;;;;2.72;88.65;98611.48;1778080;79;21019;-72
2021/03/24 03:23:53;;;;;;;97.15;43.30;;;;;;;2.71;88.57;98617.88;1753389;80;21284;-72
2021/03/24 03:26:21;;;;;;;209.30;82.82;;;;;;;2.78;87.74;98611.15;1729198;80;21436;-72
2021/03/24 03:28:51;;;;;;;107.15;51.08;;;;;;;2.81;87.74;98608.03;1778066;80;21483;-72
2021/03/24 03:31:22;;;;;;;73.37;40.85;;;;;;;2.82;87.72;98611.03;1777904;79;21083;-72
2021/03/24 03:33:50;;;;;;;51.85;29.05;;;;;;;2.86;87.45;98603.38;1778046;80;21095;-72
2021/03/24 03:36:16;;;;;;;45.65;25.48;;;;;;;2.85;88.09;98603.09;1777892;79;21516;-72
2021/03/24 03:38:43;;;;;;;45.20;23.22;;;;;;;2.83;88.16;98601.97;1777856;80;21129;-72
2021/03/24 03:41:11;;;;;;;40.98;24.80;;;;;;;2.83;88.21;98605.98;1777880;79;21087;-72
2021/03/24 03:43:40;;;;;;;44.50;24.25;;;;;;;2.89;87.43;98601.60;1777970;80;21098;-72
2021/03/24 03:46:06;;;;;;;45.35;25.23;;;;;;;2.89;87.38;98608.30;1753842;80;21068;-72
2021/03/24 03:48:32;;;;;;;48.42;22.73;;;;;;;2.83;87.32;98601.45;1777961;80;22077;-73
2021/03/24 03:51:02;;;;;;;46.30;26.48;;;;;;;2.83;87.50;98604.13;1777952;79;21110;-72
2021/03/24 03:53:42;;;;;;;47.53;24.92;;;;;;;2.79;87.60;98604.23;1777995;80;21079;-72
2021/03/24 03:56:15;;;;;;;46.85;25.90;;;;;;;2.75;87.25;98600.88;1777822;79;21086;-72
2021/03/24 03:58:56;;;;;;;40.08;23.30;;;;;;;2.77;87.45;98600.14;1778037;80;21099;-72
2021/03/24 04:01:29;;;;;;;55.25;25.27;;;;;;;2.80;87.40;98601.04;1777789;78;21205;-73
2021/03/24 04:04:04;;;;;;;44.77;22.70;;;;;;;2.81;87.18;98602.16;1754039;80;21540;-72
2021/03/24 04:06:40;;;;;;;40.45;24.02;;;;;;;2.85;86.92;98603.91;1778007;79;21408;-72
2021/03/24 04:09:08;;;;;;;47.50;23.80;;;;;;;2.87;86.88;98606.36;1762907;80;21083;-72
2021/03/24 04:11:36;;;;;;;43.80;24.92;;;;;;;2.85;87.19;98613.79;1777922;80;21178;-72
2021/03/24 04:14:03;;;;;;;48.23;24.70;;;;;;;2.82;87.35;98611.03;1754095;80;22036;-72
2021/03/24 04:16:29;;;;;;;45.73;22.25;;;;;;;2.84;86.98;98614.31;1777836;79;21141;-72
2021/03/24 04:19:00;;;;;;;47.43;22.62;;;;;;;2.92;86.64;98614.05;1777911;80;21130;-72
2021/03/24 04:21:26;;;;;;;46.55;25.72;;;;;;;2.95;86.31;98608.78;1777981;79;21452;-72
2021/03/24 04:24:01;;;;;;;70.00;34.05;;;;;;;2.86;86.59;98607.40;1777952;80;21071;-72
2021/03/24 04:26:32;;;;;;;75.05;39.27;;;;;;;2.93;86.31;98609.00;1777586;79;21149;-73
2021/03/24 04:29:03;;;;;;;62.60;32.95;;;;;;;2.89;86.58;98607.77;1777572;80;21507;-72
2021/03/24 04:31:29;;;;;;;54.05;26.07;;;;;;;2.86;86.91;98609.56;1777743;79;21110;-73
2021/03/24 04:33:55;;;;;;;53.28;27.13;;;;;;;2.83;86.87;98612.67;1729064;80;21142;-72
2021/03/24 04:36:29;;;;;;;54.23;24.90;;;;;;;2.87;86.72;98613.87;1777894;79;21524;-73
2021/03/24 04:38:58;;;;;;;42.85;24.70;;;;;;;2.83;86.95;98614.83;1777631;80;21398;-73
2021/03/24 04:41:30;;;;;;;48.25;26.57;;;;;;;2.87;86.82;98617.89;1778046;79;21559;-73
2021/03/24 04:44:01;;;;;;;49.88;25.37;;;;;;;2.88;86.68;98623.54;1778007;80;21083;-71
2021/03/24 04:46:30;;;;;;;42.62;23.92;;;;;;;2.87;86.77;98617.06;1777926;79;21094;-72
2021/03/24 04:49:00;;;;;;;45.50;25.70;;;;;;;2.89;86.94;98620.34;1754047;80;21099;-72
2021/03/24 04:51:33;;;;;;;50.28;27.55;;;;;;;2.88;86.94;98621.38;1777911;79;21141;-72
2021/03/24 04:54:33;;;;;;;48.70;27.13;;;;;;;2.90;86.69;98625.47;1753826;80;21103;-71
2021/03/24 04:57:07;;;;;;;42.27;24.20;;;;;;;2.94;86.33;98630.72;1777992;80;21076;-72
2021/03/24 04:59:39;;;;;;;44.70;26.05;;;;;;;2.92;86.15;98635.99;1777819;79;21031;-72
2021/03/24 05:02:11;;;;;;;46.63;25.05;;;;;;;2.86;86.60;98637.66;1777978;80;21102;-72
2021/03/24 05:04:54;;;;;;;48.60;23.32;;;;;;;2.85;86.53;98637.88;1777970;79;21259;-72
2021/03/24 05:07:40;;;;;;;56.25;26.17;;;;;;;2.84;86.61;98638.41;1778147;80;21472;-72
2021/03/24 05:10:11;;;;;;;47.58;23.83;;;;;;;2.79;86.88;98639.55;1778025;79;21154;-71
2021/03/24 05:12:42;;;;;;;44.67;27.02;;;;;;;2.79;86.93;98647.06;1778164;80;21067;-71
2021/03/24 05:15:22;;;;;;;44.55;23.45;;;;;;;2.78;86.77;98648.62;1778148;79;21492;-72
2021/03/24 05:17:48;;;;;;;47.25;25.25;;;;;;;2.78;86.75;98647.28;1777395;80;21281;-72
2021/03/24 05:20:32;;;;;;;42.30;23.83;;;;;;;2.82;86.75;98655.20;1778055;79;21125;-72
2021/03/24 05:22:58;;;;;;;44.15;24.12;;;;;;;2.87;86.43;98643.83;1778131;80;21131;-71
2021/03/24 05:25:37;;;;;;;44.50;23.83;;;;;;;2.89;86.44;98654.63;1778000;79;21134;-72
2021/03/24 05:28:08;;;;;;;53.15;26.68;;;;;;;2.93;86.15;98651.84;1778306;80;21489;-71
2021/03/24 05:30:39;;;;;;;57.15;32.50;;;;;;;2.94;86.36;98653.47;1778106;79;21294;-72
2021/03/24 05:33:22;;;;;;;54.25;32.75;;;;;;;2.97;86.05;98654.89;1778071;80;21098;-71
2021/03/24 05:36:12;;;;;;;47.95;27.52;;;;;;;2.97;85.95;98653.03;1754323;80;21083;-71
2021/03/24 05:38:48;;;;;;;52.20;27.30;;;;;;;3.02;85.69;98658.58;1777890;80;21142;-73
2021/03/24 05:41:47;;;;;;;47.33;24.98;;;;;;;3.03;85.75;98661.55;1777431;79;21047;-72
2021/03/24 05:44:52;;;;;;;49.95;24.92;;;;;;;3.02;85.59;98655.08;1760588;79;21204;-72
2021/03/24 05:47:59;;;;;;;50.03;26.90;;;;;;;2.99;85.52;98652.32;1778011;80;21178;-72
2021/03/24 05:51:00;;;;;;;44.93;23.35;;;;;;;2.96;85.80;98657.27;1778091;79;21574;-72
2021/03/24 05:53:43;;;;;;;47.88;24.57;;;;;;;2.93;85.80;98653.70;1778157;80;21491;-72
2021/03/24 05:56:27;;;;;;;47.88;24.65;;;;;;;2.98;85.48;98660.02;1777833;79;21476;-72
2021/03/24 05:59:22;;;;;;;51.02;25.62;;;;;;;2.99;85.47;98657.68;1777786;80;21204;-72
2021/03/24 06:02:01;;;;;;;45.75;24.85;;;;;;;3.03;85.50;98660.21;1784170;80;21479;-72
2021/03/24 06:04:41;;;;;;;48.08;25.97;;;;;;;3.07;85.21;98669.44;1785380;79;21106;-72
2021/03/24 06:08:02;;;;;;;50.75;24.85;;;;;;;3.04;85.25;98664.53;1785104;80;21523;-71
2021/03/24 06:10:45;;;;;;;47.38;24.45;;;;;;;3.09;85.01;98669.25;1784207;79;21110;-72
2021/03/24 06:13:37;;;;;;;55.12;26.80;;;;;;;3.07;84.89;98667.28;1785327;80;21269;-72
2021/03/24 06:16:35;;;;;;;46.42;24.87;;;;;;;3.11;84.80;98668.52;1771541;79;21023;-71
2021/03/24 06:19:30;;;;;;;49.10;25.07;;;;;;;3.08;84.72;98672.45;1783770;80;21035;-72
2021/03/24 06:22:08;;;;;;;46.48;24.40;;;;;;;3.05;84.71;98668.84;1785178;80;21102;-73
2021/03/24 06:24:55;;;;;;;56.58;29.10;;;;;;;3.09;84.58;98667.39;1785218;79;21043;-73
2021/03/24 06:28:01;;;;;;;52.25;25.30;;;;;;;3.13;84.40;98667.77;1784869;80;21268;-71
2021/03/24 06:31:21;;;;;;;51.42;26.73;;;;;;;3.10;84.51;98672.23;1785168;79;21038;-71
2021/03/24 06:34:28;;;;;;;49.42;25.25;;;;;;;3.19;84.33;98672.79;1785230;80;21114;-71
2021/03/24 06:37:26;;;;;;;49.30;24.95;;;;;;;3.23;84.15;98668.63;1785260;80;21141;-71
2021/03/24 06:40:33;;;;;;;56.35;27.67;;;;;;;3.23;84.12;98676.66;1785035;79;21090;-72
2021/03/24 06:43:26;;;;;;;50.85;24.98;;;;;;;3.27;83.97;98672.02;1785203;80;21195;-71
2021/03/24 06:46:26;;;;;;;53.23;26.52;;;;;;;3.31;83.92;98680.42;1785081;79;21035;-71
2021/03/24 06:49:18;;;;;;;49.98;26.15;;;;;;;3.34;83.71;98685.36;1785175;80;21098;-71
2021/03/24 06:52:27;;;;;;;47.08;26.90;;;;;;;3.39;83.51;98688.20;1785189;80;21463;-72
2021/03/24 06:55:19;;;;;;;48.08;25.80;;;;;;;3.32;83.29;98695.45;1785186;79;21035;-72
2021/03/24 06:58:14;;;;;;;52.15;29.45;;;;;;;3.30;83.37;98694.86;1784091;80;22116;-73
2021/03/24 07:01:22;;;;;;;56.83;27.15;;;;;;;3.27;83.29;98697.98;1783524;79;21120;-71
2021/03/24 07:04:33;;;;;;;58.02;32.53;;;;;;;3.34;83.12;98698.77;1780768;80;21503;-71
2021/03/24 07:07:13;;;;;;;174.93;110.68;;;;;;;3.37;83.12;98706.35;1780779;80;21424;-72
2021/03/24 07:10:08;;;;;;;89.75;52.48;;;;;;;3.35;83.19;98711.11;1780488;79;21039;-72
2021/03/24 07:13:23;;;;;;;58.58;33.42;;;;;;;3.42;82.96;98713.23;1761647;81;21147;-72
2021/03/24 07:15:56;;;;;;;110.95;76.60;;;;;;;3.47;83.00;98712.05;1779397;79;21055;-72
2021/03/24 07:18:58;;;;;;;110.32;71.50;;;;;;;3.51;82.86;98718.63;1762211;81;21064;-72
2021/03/24 07:21:51;;;;;;;62.43;37.63;;;;;;;3.58;82.89;98718.56;1780024;79;21145;-71
2021/03/24 07:24:56;;;;;;;63.90;38.95;;;;;;;3.49;82.49;98716.66;1762063;81;21107;-71
2021/03/24 07:28:06;;;;;;;52.95;28.83;;;;;;;3.50;82.46;98719.64;1780212;80;21203;-72
2021/03/24 07:30:41;;;;;;;55.38;28.92;;;;;;;3.54;82.51;98728.09;1761991;81;21100;-72
2021/03/24 07:33:24;;;;;;;65.20;36.83;;;;;;;3.48;82.52;98727.61;1750494;80;21109;-72
2021/03/24 07:36:14;;;;;;;71.35;44.65;;;;;;;3.43;82.49;98728.27;1762063;81;21053;-72
2021/03/24 07:39:33;;;;;;;60.83;35.15;;;;;;;3.46;82.42;98733.70;1779363;80;21539;-72
2021/03/24 07:42:33;;;;;;;57.25;29.70;;;;;;;3.50;82.43;98735.72;1762328;81;21202;-71
2021/03/24 07:45:40;;;;;;;48.13;25.48;;;;;;;3.54;82.50;98731.59;1780734;79;21416;-72
2021/03/24 07:48:28;;;;;;;54.85;28.92;;;;;;;3.51;82.04;98741.93;1780723;80;21079;-72
2021/03/24 07:51:12;;;;;;;58.73;33.67;;;;;;;3.55;82.25;98744.46;1780775;79;21034;-71
2021/03/24 07:54:08;;;;;;;54.70;32.45;;;;;;;3.59;81.97;98735.78;1762146;81;21521;-72
2021/03/24 07:57:06;;;;;;;84.28;44.33;;;;;;;3.56;81.96;98744.77;1717498;81;22274;-72
2021/03/24 07:59:56;;;;;;;104.75;60.23;;;;;;;3.66;81.99;98745.09;1779727;79;21227;-71
2021/03/24 08:02:42;;;;;;;99.85;57.80;;;;;;;3.69;81.92;98743.34;1766199;81;21029;-71
2021/03/24 08:05:34;;;;;;;69.03;38.88;;;;;;;3.74;81.79;98737.31;1788374;78;21114;-72
2021/03/24 08:08:32;;;;;;;60.90;29.82;;;;;;;3.75;81.65;98730.91;1788870;80;21514;-72
2021/03/24 08:11:07;;;;;;;60.75;30.95;;;;;;;3.62;81.65;98734.52;1788711;78;21399;-72
2021/03/24 08:13:53;;;;;;;55.23;31.95;;;;;;;3.67;81.54;98740.03;1788329;80;21503;-71
2021/03/24 08:17:14;;;;;;;48.78;28.75;;;;;;;3.63;81.42;98734.82;1788826;78;21063;-72
2021/03/24 08:20:13;;;;;;;57.05;27.52;;;;;;;3.73;81.50;98733.81;1788675;78;21055;-72
2021/03/24 08:23:04;;;;;;;53.13;29.15;;;;;;;3.74;81.34;98737.31;1788736;80;21096;-72
2021/03/24 08:25:47;;;;;;;56.00;30.10;;;;;;;3.77;81.09;98735.03;1788389;78;21187;-72
2021/03/24 08:28:45;;;;;;;57.80;28.32;;;;;;;3.77;81.02;98732.88;1758421;80;21023;-72
2021/03/24 08:31:51;;;;;;;68.60;35.65;;;;;;;3.83;81.10;98732.80;1788689;78;21060;-71
2021/03/24 08:34:32;;;;;;;58.10;30.40;;;;;;;3.92;81.14;98733.34;1787178;78;21109;-71
2021/03/24 08:37:38;;;;;;;72.15;42.25;;;;;;;3.96;80.95;98732.70;1788730;80;21083;-72
2021/03/24 08:40:39;;;;;;;55.83;28.15;;;;;;;3.96;80.80;98734.56;1788275;78;21202;-72
2021/03/24 08:43:53;;;;;;;52.60;27.82;;;;;;;3.90;80.62;98734.91;1788799;80;21118;-72
2021/03/24 08:46:42;;;;;;;52.35;27.95;;;;;;;3.92;80.59;98734.69;1788869;78;21039;-72
2021/03/24 08:49:21;;;;;;;45.90;24.80;;;;;;;3.90;80.54;98735.42;1788985;78;21094;-71
2021/03/24 08:52:01;;;;;;;55.75;28.50;;;;;;;3.96;80.32;98737.24;1789102;80;21090;-71
2021/03/24 08:54:50;;;;;;;62.48;35.33;;;;;;;4.02;80.35;98736.89;1788922;78;22093;-72
2021/03/24 08:57:40;;;;;;;55.15;30.17;;;;;;;4.00;80.02;98734.93;1788911;80;21113;-72
2021/03/24 09:00:35;;;;;;;41.08;24.43;;;;;;;4.23;80.04;98723.88;1788967;78;21090;-72
2021/03/24 09:03:25;;;;;;;42.88;24.65;;;;;;;4.23;80.04;98723.88;1781017;80;21046;-72
2021/03/24 09:06:31;;;;;;;49.20;25.05;;;;;;;4.23;79.33;98721.72;1780856;79;21067;-71
2021/03/24 09:09:51;;;;;;;42.15;24.87;;;;;;;4.21;78.91;98725.97;1780934;80;22029;-72
2021/03/24 09:12:25;;;;;;;44.75;25.45;;;;;;;4.12;78.87;98727.30;1756153;80;21087;-71
2021/03/24 09:15:06;;;;;;;47.27;26.82;;;;;;;4.11;79.17;98732.89;1780044;79;21115;-72
2021/03/24 09:17:55;;;;;;;48.68;25.95;;;;;;;4.12;79.41;98734.53;1742660;81;21025;-71
2021/03/24 09:20:51;;;;;;;50.83;27.20;;;;;;;4.11;79.00;98733.71;1780900;79;21008;-72
2021/03/24 09:24:07;;;;;;;41.37;22.87;;;;;;;4.17;79.13;98719.91;1779766;80;21199;-72
2021/03/24 09:27:06;;;;;;;40.30;22.15;;;;;;;4.20;78.98;98718.97;1780815;80;21043;-72
2021/03/24 09:30:02;;;;;;;;;;;;;;;4.18;78.77;98715.66;1779980;79;21205;-72
2021/03/24 09:32:37;;;;;;;48.15;23.18;;;;;;;4.33;78.89;98719.86;1780722;80;20243;-72
2021/03/24 09:35:29;;;;;;;36.85;22.55;;;;;;;4.42;78.72;98716.66;1762326;81;21033;-71
2021/03/24 09:38:12;;;;;;;44.85;25.40;;;;;;;4.48;78.42;98716.30;1780762;80;21102;-71
2021/03/24 09:40:46;;;;;;;47.45;24.00;;;;;;;4.40;77.39;98723.30;1762165;81;21112;-71
2021/03/24 09:43:31;;;;;;;56.05;27.07;;;;;;;4.37;77.86;98718.39;1749956;82;21428;-72
2021/03/24 09:46:08;;;;;;;45.88;24.52;;;;;;;4.46;78.11;98724.58;1749846;82;21106;-70
2021/03/24 09:48:45;;;;;;;46.85;23.70;;;;;;;4.50;77.94;98719.05;1780913;80;21874;-71
2021/03/24 09:51:22;;;;;;;51.40;26.60;;;;;;;4.46;77.59;98721.90;1780731;79;21266;-71
2021/03/24 09:53:48;;;;;;;53.50;26.85;;;;;;;4.48;77.71;98718.98;1779978;80;21483;-71
2021/03/24 09:56:21;;;;;;;46.60;24.98;;;;;;;4.43;77.48;98718.30;1731977;81;21547;-71
2021/03/24 09:59:01;;;;;;;49.18;26.70;;;;;;;4.40;77.67;98714.73;1755207;80;21082;-72
2021/03/24 10:01:52;;;;;;;45.98;25.68;;;;;;;4.53;77.77;98715.13;1763084;81;21214;-72
2021/03/24 10:04:32;;;;;;;52.73;27.22;;;;;;;4.43;77.54;98717.48;1788914;78;21468;-71
2021/03/24 10:07:23;;;;;;;34.92;21.02;;;;;;;4.56;77.38;98714.66;1784052;80;21499;-72
2021/03/24 10:10:15;;;;;;;43.17;24.23;;;;;;;4.54;76.65;98712.73;1788907;78;21106;-72
2021/03/24 10:13:14;;;;;;;44.70;23.20;;;;;;;4.58;76.90;98713.91;1788816;80;21034;-72
2021/03/24 10:15:45;;;;;;;41.35;23.80;;;;;;;4.48;76.56;98713.09;1768246;80;21016;-71
2021/03/24 10:18:40;;;;;;;42.20;24.07;;;;;;;4.59;77.02;98713.39;1788904;80;21198;-72
2021/03/24 10:21:16;;;;;;;45.23;23.22;;;;;;;4.62;76.92;98710.27;1788574;78;21090;-72
2021/03/24 10:23:49;;;;;;;42.17;24.65;;;;;;;4.65;76.99;98711.98;1765406;80;21098;-71
2021/03/24 10:26:31;;;;;;;37.60;22.80;;;;;;;4.61;76.47;98709.95;1788807;78;21110;-71
2021/03/24 10:29:10;;;;;;;37.08;20.85;;;;;;;4.63;76.56;98706.55;1788909;80;21078;-71
2021/03/24 10:31:45;;;;;;;41.20;21.90;;;;;;;4.56;76.19;98710.64;1788964;80;21202;-72
2021/03/24 10:34:34;;;;;;;57.43;27.85;;;;;;;4.65;76.57;98706.61;1788805;78;21091;-72
2021/03/24 10:37:09;;;;;;;44.40;25.00;;;;;;;4.58;76.31;98707.20;1788871;80;21507;-71
2021/03/24 10:39:49;;;;;;;44.45;25.90;;;;;;;4.61;75.99;98704.05;1788773;78;21043;-72
2021/03/24 10:42:41;;;;;;;44.80;24.47;;;;;;;4.75;76.57;98698.02;1787863;80;21075;-71
2021/03/24 10:45:31;;;;;;;41.45;24.63;;;;;;;4.68;76.08;98701.30;1788867;78;22046;-72
2021/03/24 10:48:13;;;;;;;43.02;25.57;;;;;;;4.77;76.32;98695.39;1788545;80;21098;-71
2021/03/24 10:50:57;;;;;;;44.70;25.17;;;;;;;4.70;75.60;98693.34;1788788;78;21031;-71
2021/03/24 10:53:26;;;;;;;49.88;25.90;;;;;;;4.63;75.38;98703.86;1782682;80;21038;-73
2021/03/24 10:56:15;;;;;;;46.70;24.87;;;;;;;4.58;75.79;98703.17;1789007;78;21063;-72
2021/03/24 10:58:59;;;;;;;50.78;27.27;;;;;;;4.65;76.13;98705.79;1781294;80;21205;-72
2021/03/24 11:01:42;;;;;;;50.60;26.17;;;;;;;4.61;75.87;98701.38;1770900;80;21528;-72
2021/03/24 11:04:35;;;;;;;44.13;23.18;;;;;;;4.59;76.11;98696.76;1753563;79;21118;-72
2021/03/24 11:07:17;;;;;;;48.45;26.00;;;;;;;4.66;76.02;98692.13;1779701;80;21031;-71
2021/03/24 11:09:51;;;;;;;49.30;26.25;;;;;;;4.73;76.08;98696.09;1785298;79;21400;-72
2021/03/24 11:12:26;;;;;;;44.70;25.15;;;;;;;4.69;75.66;98694.88;1784982;80;21394;-72
2021/03/24 11:15:13;;;;;;;44.08;25.35;;;;;;;4.73;75.67;98692.88;1785089;79;21082;-71
2021/03/24 11:17:39;;;;;;;45.48;26.82;;;;;;;4.78;75.67;98690.84;1782524;80;21416;-72
2021/03/24 11:20:12;;;;;;;51.90;29.60;;;;;;;4.78;75.60;98688.16;1785197;79;21495;-72
2021/03/24 11:22:57;;;;;;;48.63;26.48;;;;;;;4.77;75.40;98687.34;1785154;80;21082;-72
2021/03/24 11:25:39;;;;;;;95.32;53.52;;;;;;;4.79;75.33;98691.16;1785044;79;21150;-72
2021/03/24 11:28:35;;;;;;;50.90;31.17;;;;;;;4.74;75.38;98684.30;1785170;80;21066;-71
2021/03/24 11:31:18;;;;;;;45.35;29.87;;;;;;;4.77;75.53;98676.59;1784263;79;21047;-72
2021/03/24 11:33:50;;;;;;;47.85;27.73;;;;;;;4.76;75.19;98680.33;1785142;80;21118;-72
2021/03/24 11:36:42;;;;;;;51.77;26.15;;;;;;;4.86;75.59;98677.11;1785146;79;21094;-72
2021/03/24 11:39:28;;;;;;;51.18;26.55;;;;;;;4.92;75.35;98674.86;1783964;79;22049;-72
2021/03/24 11:42:10;;;;;;;46.50;23.62;;;;;;;4.88;75.11;98673.70;1785158;80;21118;-72
2021/03/24 11:44:36;;;;;;;50.25;27.00;;;;;;;4.92;74.88;98672.18;1785230;79;21420;-72
2021/03/24 11:47:17;;;;;;;52.70;27.40;;;;;;;4.89;74.68;98673.17;1785152;80;21293;-72
2021/03/24 11:49:51;;;;;;;48.80;25.12;;;;;;;4.95;75.09;98666.87;1785164;79;21027;-71
2021/03/24 11:52:32;;;;;;;52.60;29.48;;;;;;;4.88;74.51;98670.19;1785129;80;21191;-72
2021/03/24 11:55:33;;;;;;;52.98;28.73;;;;;;;4.90;74.87;98673.46;1785081;79;21079;-72
2021/03/24 11:58:11;;;;;;;49.13;28.35;;;;;;;4.95;74.97;98668.20;1784810;80;21024;-72
2021/03/24 12:00:59;;;;;;;54.55;26.77;;;;;;;4.93;75.05;98665.76;1785076;79;21475;-71
2021/03/24 12:04:06;;;;;;;53.35;29.70;;;;;;;4.87;75.04;98661.31;1781852;80;21111;-72
2021/03/24 12:07:11;;;;;;;56.70;32.45;;;;;;;4.82;75.26;98662.51;1780761;79;21192;-72
2021/03/24 12:09:39;;;;;;;56.55;30.70;;;;;;;4.85;75.24;98671.44;1780652;79;21056;-72
2021/03/24 12:12:14;;;;;;;54.25;27.67;;;;;;;4.86;75.32;98668.23;1780767;80;21523;-72
2021/03/24 12:14:42;;;;;;;47.38;25.72;;;;;;;4.90;75.26;98666.75;1780988;79;21440;-72
2021/03/24 12:17:34;;;;;;;48.30;28.38;;;;;;;4.91;74.93;98667.86;1781090;80;21524;-72
2021/03/24 12:20:17;;;;;;;44.95;25.27;;;;;;;4.92;74.74;98664.64;1780849;79;21185;-72
2021/03/24 12:22:55;;;;;;;53.35;29.35;;;;;;;4.94;74.66;98658.52;1780125;80;21060;-71
2021/03/24 12:25:30;;;;;;;63.65;33.55;;;;;;;5.03;75.23;98666.55;1780948;79;21036;-72
2021/03/24 12:28:03;;;;;;;61.33;32.45;;;;;;;5.05;74.94;98661.79;1762350;81;21132;-72